createdAt,value
2023-12-13T00:00:38.351Z,99932.28
2023-12-13T00:03:05.492Z,99924.22
2023-12-13T00:05:32.340Z,99914.47
2023-12-13T00:07:59.069Z,99938.63
2023-12-13T00:10:25.761Z,99903.44
2023-12-13T00:12:52.393Z,99911.06
2023-12-13T00:15:20.802Z,99880.66
2023-12-13T00:17:47.708Z,99841.97
2023-12-13T00:20:14.499Z,99911.91
2023-12-13T00:22:41.118Z,99886.88
2023-12-13T00:25:08.716Z,99838.13
2023-12-13T00:27:35.521Z,99889.44
2023-12-13T00:30:02.462Z,99886.19
2023-12-13T00:32:29.087Z,99855.78
2023-12-13T00:34:55.803Z,99845.03
2023-12-13T00:37:22.541Z,99697.28
2023-12-13T00:39:49.133Z,99830.22
2023-12-13T00:42:15.775Z,99821.72
2023-12-13T00:44:42.365Z,99824.09
2023-12-13T00:47:09.101Z,99820.31
2023-12-13T00:49:36.166Z,99774.97
2023-12-13T00:52:04.253Z,99784.84
2023-12-13T00:54:31.045Z,99770.72
2023-12-13T00:56:57.625Z,99789.78
2023-12-13T00:59:24.226Z,99757.97
2023-12-13T01:01:51.142Z,99776.06
2023-12-13T01:04:17.942Z,99745.00
2023-12-13T01:06:45.116Z,99780.16
2023-12-13T01:09:12.057Z,99741.75
2023-12-13T01:11:40.474Z,99702.66
2023-12-13T01:14:08.196Z,99792.88
2023-12-13T01:16:35.083Z,99792.72
2023-12-13T01:19:02.084Z,99778.91
2023-12-13T01:21:30.564Z,99775.66
2023-12-13T01:23:57.580Z,99781.16
2023-12-13T01:26:24.182Z,99762.22
2023-12-13T01:28:50.922Z,99786.53
2023-12-13T01:31:18.789Z,99728.03
2023-12-13T01:33:45.842Z,99787.94
2023-12-13T01:36:12.657Z,99792.88
2023-12-13T01:38:39.748Z,99794.63
2023-12-13T01:41:12.469Z,99799.22
2023-12-13T01:43:44.150Z,99777.38
2023-12-13T01:46:13.215Z,99802.09
2023-12-13T01:48:41.170Z,99795.56
2023-12-13T01:51:08.773Z,99805.91
2023-12-13T01:53:37.705Z,99795.00
2023-12-13T01:56:06.628Z,99801.22
2023-12-13T01:58:38.118Z,99731.72
2023-12-13T02:01:08.589Z,99775.22
2023-12-13T02:03:36.844Z,99739.19
2023-12-13T02:06:03.938Z,99760.53
2023-12-13T02:08:31.059Z,99750.66
2023-12-13T02:10:59.910Z,99717.31
2023-12-13T02:13:27.080Z,99715.91
2023-12-13T02:15:53.826Z,99757.56
2023-12-13T02:18:20.837Z,99757.56
2023-12-13T02:20:47.649Z,99693.75
2023-12-13T02:23:14.321Z,99745.31
2023-12-13T02:25:59.553Z,99750.66
2023-12-13T02:28:27.415Z,99745.00
2023-12-13T02:30:56.158Z,99743.88
2023-12-13T02:33:27.422Z,99757.13
2023-12-13T02:35:55.748Z,99752.09
2023-12-13T02:38:22.456Z,99758.69
2023-12-13T02:40:49.336Z,99729.03
2023-12-13T02:43:16.371Z,99762.22
2023-12-13T02:45:43.131Z,99738.78
2023-12-13T02:48:10.573Z,99770.28
2023-12-13T02:50:38.300Z,99699.97
2023-12-13T02:53:05.412Z,99770.56
2023-12-13T02:55:32.102Z,99777.94
2023-12-13T02:58:03.723Z,99717.34
2023-12-13T03:00:30.404Z,99753.78
2023-12-13T03:02:58.794Z,99775.81
2023-12-13T03:05:26.311Z,99776.66
2023-12-13T03:07:53.068Z,99766.75
2023-12-13T03:10:19.897Z,99773.81
2023-12-13T03:12:46.614Z,99778.19
2023-12-13T03:15:13.245Z,99804.09
2023-12-13T03:17:40.319Z,99735.41
2023-12-13T03:20:08.023Z,99696.16
2023-12-13T03:22:34.622Z,99749.09
2023-12-13T03:25:01.230Z,99737.25
2023-12-13T03:27:27.825Z,99790.06
2023-12-13T03:29:54.532Z,99796.44
2023-12-13T03:32:21.103Z,99793.19
2023-12-13T03:34:47.720Z,99757.31
2023-12-13T03:37:16.045Z,99769.59
2023-12-13T03:39:42.683Z,99730.06
2023-12-13T03:42:09.280Z,99786.94
2023-12-13T03:44:35.965Z,99772.72
2023-12-13T03:47:02.723Z,99726.78
2023-12-13T03:49:29.595Z,99700.41
2023-12-13T03:51:56.326Z,99746.53
2023-12-13T03:54:23.018Z,99783.44
2023-12-13T03:56:49.669Z,99767.34
2023-12-13T03:59:16.493Z,99737.97
2023-12-13T04:01:43.150Z,99753.91
2023-12-13T04:04:10.036Z,99765.91
2023-12-13T04:06:36.823Z,99785.56
2023-12-13T04:09:04.028Z,99721.44
2023-12-13T04:11:30.711Z,99729.06
2023-12-13T04:13:57.355Z,99768.03
2023-12-13T04:16:24.007Z,99732.31
2023-12-13T04:18:50.640Z,99738.94
2023-12-13T04:21:17.247Z,99723.69
2023-12-13T04:23:43.880Z,99711.28
2023-12-13T04:26:11.041Z,99721.41
2023-12-13T04:28:37.656Z,99759.28
2023-12-13T04:31:04.441Z,99750.66
2023-12-13T04:33:32.592Z,99687.25
2023-12-13T04:36:00.832Z,99675.25
2023-12-13T04:38:27.485Z,99741.06
2023-12-13T04:40:54.568Z,99682.59
2023-12-13T04:43:21.330Z,99683.19
2023-12-13T04:45:47.977Z,99679.63
2023-12-13T04:48:14.683Z,99685.69
2023-12-13T04:50:41.430Z,99715.06
2023-12-13T04:53:08.100Z,99716.34
2023-12-13T04:55:34.790Z,99715.78
2023-12-13T04:58:01.469Z,99701.38
2023-12-13T05:00:28.053Z,99738.81
2023-12-13T05:02:54.697Z,99755.88
2023-12-13T05:05:21.338Z,99761.41
2023-12-13T05:07:48.088Z,99758.69
2023-12-13T05:10:14.862Z,99758.00
2023-12-13T05:12:41.523Z,99745.31
2023-12-13T05:15:08.413Z,99746.88
2023-12-13T05:17:35.301Z,99757.44
2023-12-13T05:20:02.121Z,99727.94
2023-12-13T05:22:28.865Z,99696.00
2023-12-13T05:24:55.500Z,99685.84
2023-12-13T05:27:22.201Z,99713.66
2023-12-13T05:29:48.846Z,99700.81
2023-12-13T05:32:15.463Z,99764.09
2023-12-13T05:34:42.197Z,99679.19
2023-12-13T05:37:08.848Z,99755.63
2023-12-13T05:39:35.521Z,99717.34
2023-12-13T05:42:02.189Z,99759.31
2023-12-13T05:44:29.418Z,99702.50
2023-12-13T05:46:56.382Z,99711.28
2023-12-13T05:49:23.456Z,99777.66
2023-12-13T05:51:50.225Z,99763.38
2023-12-13T05:54:17.015Z,99750.53
2023-12-13T05:56:43.625Z,99772.44
2023-12-13T05:59:12.409Z,99785.56
2023-12-13T06:01:39.315Z,99755.06
2023-12-13T06:04:06.666Z,99747.00
2023-12-13T06:06:33.548Z,99724.97
2023-12-13T06:09:00.363Z,99744.88
2023-12-13T06:11:27.114Z,99606.19
2023-12-13T06:13:53.863Z,99778.94
2023-12-13T06:16:20.734Z,99752.50
2023-12-13T06:18:47.426Z,99761.53
2023-12-13T06:21:14.143Z,99750.38
2023-12-13T06:23:40.780Z,99786.38
2023-12-13T06:26:07.425Z,99792.22
2023-12-13T06:28:34.097Z,99793.63
2023-12-13T06:31:00.857Z,99704.06
2023-12-13T06:33:27.657Z,99746.56
2023-12-13T06:35:54.899Z,99778.66
2023-12-13T06:38:21.614Z,99781.19
2023-12-13T06:40:48.365Z,99728.50
2023-12-13T06:43:15.183Z,99761.13
2023-12-13T06:45:41.864Z,99774.13
2023-12-13T06:48:08.773Z,99729.50
2023-12-13T06:50:35.722Z,99773.28
2023-12-13T06:53:02.523Z,99783.00
2023-12-13T06:55:29.205Z,99736.81
2023-12-13T06:57:56.137Z,99744.16
2023-12-13T07:00:23.036Z,99604.34
2023-12-13T07:02:50.807Z,99781.91
2023-12-13T07:05:17.735Z,99770.59
2023-12-13T07:07:44.987Z,99750.53
2023-12-13T07:10:11.622Z,99780.91
2023-12-13T07:12:38.848Z,99733.84
2023-12-13T07:15:07.650Z,99765.09
2023-12-13T07:17:34.950Z,99780.75
2023-12-13T07:20:02.016Z,99706.56
2023-12-13T07:22:28.914Z,99724.66
2023-12-13T07:24:55.634Z,99762.25
2023-12-13T07:27:22.331Z,99742.63
2023-12-13T07:29:48.992Z,99783.28
2023-12-13T07:32:15.636Z,99801.13
2023-12-13T07:34:44.550Z,99726.38
2023-12-13T07:37:14.098Z,99774.97
2023-12-13T07:39:40.665Z,99798.97
2023-12-13T07:42:07.635Z,99773.25
2023-12-13T07:44:34.747Z,99778.31
2023-12-13T07:47:02.182Z,99747.97
2023-12-13T07:49:29.978Z,99801.78
2023-12-13T07:51:56.787Z,99765.34
2023-12-13T07:54:23.708Z,99775.25
2023-12-13T07:56:54.774Z,99789.09
2023-12-13T07:59:22.663Z,99804.91
2023-12-13T08:01:49.830Z,99807.59
2023-12-13T08:04:16.965Z,99755.44
2023-12-13T08:06:43.839Z,99797.31
2023-12-13T08:09:10.976Z,99811.28
2023-12-13T08:11:38.329Z,99802.09
2023-12-13T08:14:05.623Z,99820.16
2023-12-13T08:16:32.441Z,99845.59
2023-12-13T08:18:59.514Z,99795.88
2023-12-13T08:21:26.297Z,99824.41
2023-12-13T08:23:53.411Z,99820.03
2023-12-13T08:26:20.503Z,99747.81
2023-12-13T08:28:47.359Z,99794.03
2023-12-13T08:31:21.070Z,99823.44
2023-12-13T08:33:53.415Z,99768.72
2023-12-13T08:36:20.241Z,99772.97
2023-12-13T08:38:46.989Z,99785.97
2023-12-13T08:41:16.010Z,99770.25
2023-12-13T08:43:42.857Z,99775.34
2023-12-13T08:46:10.084Z,99790.06
2023-12-13T08:48:36.860Z,99795.41
2023-12-13T08:51:09.228Z,99813.78
2023-12-13T08:53:36.097Z,99808.44
2023-12-13T08:56:04.729Z,99866.25
2023-12-13T08:58:32.745Z,99840.31
2023-12-13T09:01:00.068Z,99770.25
2023-12-13T09:03:27.252Z,99844.91
2023-12-13T09:05:54.829Z,99852.13
2023-12-13T09:08:21.655Z,99821.97
2023-12-13T09:10:48.836Z,99889.94
2023-12-13T09:13:15.589Z,99897.91
2023-12-13T09:15:44.294Z,99886.75
2023-12-13T09:18:11.354Z,99829.03
2023-12-13T09:20:38.234Z,99822.97
2023-12-13T09:23:09.144Z,99822.09
2023-12-13T09:25:35.753Z,99834.41
2023-12-13T09:28:03.404Z,99892.25
2023-12-13T09:30:30.094Z,99885.31
2023-12-13T09:32:59.704Z,99891.97
2023-12-13T09:35:26.475Z,99844.13
2023-12-13T09:37:53.493Z,99814.94
2023-12-13T09:40:21.874Z,99845.22
2023-12-13T09:42:49.263Z,99904.00
2023-12-13T09:45:24.572Z,99892.91
2023-12-13T09:47:56.588Z,99917.44
2023-12-13T09:50:32.039Z,99785.41
2023-12-13T09:52:59.198Z,99857.94
2023-12-13T09:55:26.912Z,99912.75
2023-12-13T09:57:54.053Z,99858.44
2023-12-13T10:00:22.032Z,99932.66
2023-12-13T10:02:49.718Z,99922.63
2023-12-13T10:05:19.143Z,99947.38
2023-12-13T10:07:46.251Z,99890.06
2023-12-13T10:10:13.374Z,99888.22
2023-12-13T10:12:40.714Z,99887.81
2023-12-13T10:15:14.482Z,99915.25
2023-12-13T10:17:42.749Z,99921.78
2023-12-13T10:20:10.543Z,99961.13
2023-12-13T10:22:38.223Z,99874.94
2023-12-13T10:25:06.134Z,99937.19
2023-12-13T10:27:33.159Z,99844.97
2023-12-13T10:30:00.750Z,99970.00
2023-12-13T10:32:27.891Z,99888.16
2023-12-13T10:34:54.694Z,99950.63
2023-12-13T10:37:26.053Z,99974.78
2023-12-13T10:39:57.437Z,99946.19
2023-12-13T10:42:25.704Z,99924.28
2023-12-13T10:44:56.097Z,99952.63
2023-12-13T10:47:28.304Z,99982.41
2023-12-13T10:49:57.312Z,99977.69
2023-12-13T10:52:26.897Z,99975.81
2023-12-13T10:54:54.025Z,99942.09
2023-12-13T10:57:21.027Z,99934.66
2023-12-13T10:59:49.764Z,99984.09
2023-12-13T11:02:19.919Z,99915.31
2023-12-13T11:04:47.794Z,99888.34
2023-12-13T11:07:21.675Z,99949.03
2023-12-13T11:09:54.339Z,99959.88
2023-12-13T11:12:21.249Z,99890.47
2023-12-13T11:14:51.958Z,99982.44
2023-12-13T11:17:21.048Z,99953.56
2023-12-13T11:19:53.773Z,99974.09
2023-12-13T11:22:25.278Z,100007.50
2023-12-13T11:25:04.681Z,100010.31
2023-12-13T11:27:33.579Z,99987.53
2023-12-13T11:30:13.541Z,99994.41
2023-12-13T11:32:45.318Z,99972.19
2023-12-13T11:35:15.381Z,99980.56
2023-12-13T11:37:43.036Z,99960.56
2023-12-13T11:40:10.617Z,99938.03
2023-12-13T11:42:37.367Z,99962.81
2023-12-13T11:45:05.172Z,100009.50
2023-12-13T11:47:32.388Z,99981.00
2023-12-13T11:49:59.295Z,99988.63
2023-12-13T11:52:26.800Z,99986.34
2023-12-13T11:54:53.500Z,99903.41
2023-12-13T11:57:20.799Z,100008.59
2023-12-13T11:59:48.410Z,100039.88
2023-12-13T12:02:18.509Z,100020.59
2023-12-13T12:04:46.069Z,100004.72
2023-12-13T12:07:17.316Z,100028.69
2023-12-13T12:09:51.861Z,99980.56
2023-12-13T12:12:19.425Z,99992.34
2023-12-13T12:14:49.432Z,100022.50
2023-12-13T12:17:25.303Z,99999.25
2023-12-13T12:19:52.897Z,100013.81
2023-12-13T12:22:23.556Z,100028.38
2023-12-13T12:24:53.123Z,100027.88
2023-12-13T12:27:26.263Z,99991.69
2023-12-13T12:29:53.787Z,100028.50
2023-12-13T12:32:20.932Z,99997.44
2023-12-13T12:34:49.829Z,99988.81
2023-12-13T12:37:17.551Z,100040.47
2023-12-13T12:39:45.050Z,100064.59
2023-12-13T12:42:11.708Z,99982.16
2023-12-13T12:44:38.437Z,100087.72
2023-12-13T12:47:06.756Z,100049.75
2023-12-13T12:49:33.480Z,100013.81
2023-12-13T12:52:01.397Z,100042.34
2023-12-13T12:54:28.131Z,99980.47
2023-12-13T12:56:55.157Z,99986.16
2023-12-13T12:59:23.664Z,100039.50
2023-12-13T13:01:50.807Z,100028.16
2023-12-13T13:04:20.812Z,100020.91
2023-12-13T13:06:48.329Z,100080.44
2023-12-13T13:09:18.512Z,100003.22
2023-12-13T13:11:46.847Z,100044.22
2023-12-13T13:14:14.199Z,100086.47
2023-12-13T13:16:40.975Z,100067.16
2023-12-13T13:19:07.986Z,100083.22
2023-12-13T13:21:37.533Z,100065.31
2023-12-13T13:24:08.035Z,100079.66
2023-12-13T13:26:36.635Z,100054.41
2023-12-13T13:29:05.780Z,100083.38
2023-12-13T13:31:32.636Z,100040.06
2023-12-13T13:33:59.396Z,100017.88
2023-12-13T13:36:26.056Z,100053.09
2023-12-13T13:38:52.657Z,100112.16
2023-12-13T13:41:20.789Z,99941.78
2023-12-13T13:43:47.429Z,100096.97
2023-12-13T13:46:14.178Z,100075.06
2023-12-13T13:48:40.997Z,100121.41
2023-12-13T13:51:07.732Z,100115.75
2023-12-13T13:53:34.744Z,100101.38
2023-12-13T13:56:03.458Z,100100.88
2023-12-13T13:58:30.988Z,100099.56
2023-12-13T14:01:01.048Z,100120.16
2023-12-13T14:03:27.851Z,100074.81
2023-12-13T14:05:57.271Z,100100.84
2023-12-13T14:08:24.074Z,100056.97
2023-12-13T14:10:53.060Z,100115.75
2023-12-13T14:13:20.164Z,100120.69
2023-12-13T14:15:49.749Z,100112.56
2023-12-13T14:18:20.268Z,100138.34
2023-12-13T14:20:50.246Z,100136.53
2023-12-13T14:23:17.061Z,100094.94
2023-12-13T14:25:43.985Z,100092.97
2023-12-13T14:28:10.968Z,100096.41
2023-12-13T14:30:38.740Z,100165.44
2023-12-13T14:33:05.615Z,100084.63
2023-12-13T14:35:32.336Z,100095.59
2023-12-13T14:38:01.154Z,100087.69
2023-12-13T14:40:29.102Z,100159.91
2023-12-13T14:42:56.018Z,100123.41
2023-12-13T14:45:23.228Z,100178.72
2023-12-13T14:47:49.972Z,100149.22
2023-12-13T14:50:17.033Z,100112.63
2023-12-13T14:52:44.042Z,100187.34
2023-12-13T14:55:11.155Z,100139.00
2023-12-13T14:57:39.030Z,100164.44
2023-12-13T15:00:13.785Z,100200.97
2023-12-13T15:02:42.856Z,100201.47
2023-12-13T15:05:17.912Z,100204.78
2023-12-13T15:07:45.587Z,100162.63
2023-12-13T15:10:15.239Z,100193.94
2023-12-13T15:12:42.667Z,100163.63
2023-12-13T15:15:10.012Z,100217.63
2023-12-13T15:17:37.026Z,100193.47
2023-12-13T15:20:09.288Z,100181.91
2023-12-13T15:22:37.358Z,100233.13
2023-12-13T15:25:09.951Z,100231.09
2023-12-13T15:27:40.533Z,100224.84
2023-12-13T15:30:09.684Z,100192.03
2023-12-13T15:32:36.530Z,100249.19
2023-12-13T15:35:06.427Z,100232.09
2023-12-13T15:37:33.414Z,100212.13
2023-12-13T15:40:00.268Z,100252.38
2023-12-13T15:42:26.993Z,100189.03
2023-12-13T15:44:56.637Z,100241.03
2023-12-13T15:47:23.355Z,100241.41
2023-12-13T15:49:50.028Z,100271.22
2023-12-13T15:52:16.793Z,100270.25
2023-12-13T15:54:43.451Z,100277.06
2023-12-13T15:57:10.351Z,100251.47
2023-12-13T15:59:37.108Z,100273.94
2023-12-13T16:02:05.885Z,100209.94
2023-12-13T16:04:34.700Z,100266.63
2023-12-13T16:07:02.166Z,100287.97
2023-12-13T16:09:28.846Z,100283.06
2023-12-13T16:11:55.766Z,100228.53
2023-12-13T16:14:26.273Z,100260.06
2023-12-13T16:16:54.097Z,100281.97
2023-12-13T16:19:21.427Z,100298.06
2023-12-13T16:21:48.421Z,100225.75
2023-12-13T16:24:15.084Z,100302.00
2023-12-13T16:26:41.838Z,100313.69
2023-12-13T16:29:17.246Z,100289.19
2023-12-13T16:31:49.423Z,100279.31
2023-12-13T16:34:16.252Z,100280.53
2023-12-13T16:36:44.770Z,100309.28
2023-12-13T16:39:12.538Z,100270.31
2023-12-13T16:41:40.290Z,100245.94
2023-12-13T16:44:07.050Z,100255.19
2023-12-13T16:46:33.777Z,100297.00
2023-12-13T16:49:00.591Z,100276.16
2023-12-13T16:51:27.286Z,100341.34
2023-12-13T16:53:53.860Z,100353.41
2023-12-13T16:56:21.056Z,100356.22
2023-12-13T16:58:47.942Z,100357.81
2023-12-13T17:01:14.623Z,100320.25
2023-12-13T17:03:43.762Z,100383.03
2023-12-13T17:06:12.493Z,100329.41
2023-12-13T17:08:39.171Z,100366.81
2023-12-13T17:11:06.184Z,100314.88
2023-12-13T17:13:33.003Z,100339.38
2023-12-13T17:15:59.693Z,100259.66
2023-12-13T17:18:26.510Z,100395.09
2023-12-13T17:20:53.273Z,100390.97
2023-12-13T17:23:19.950Z,100396.09
2023-12-13T17:25:46.918Z,100360.38
2023-12-13T17:28:13.578Z,100406.34
2023-12-13T17:30:40.326Z,100367.66
2023-12-13T17:33:07.139Z,100409.84
2023-12-13T17:35:34.056Z,100418.00
2023-12-13T17:38:01.035Z,100417.53
2023-12-13T17:40:28.888Z,100365.34
2023-12-13T17:42:55.536Z,100382.16
2023-12-13T17:45:22.425Z,100386.44
2023-12-13T17:47:49.127Z,100382.56
2023-12-13T17:50:16.426Z,100393.47
2023-12-13T17:52:43.897Z,100434.09
2023-12-13T17:55:10.697Z,100449.53
2023-12-13T17:57:38.658Z,100440.81
2023-12-13T18:00:06.802Z,100427.03
2023-12-13T18:02:33.693Z,100474.59
2023-12-13T18:05:01.408Z,100395.69
2023-12-13T18:07:28.222Z,100463.63
2023-12-13T18:09:54.852Z,100401.16
2023-12-13T18:12:21.703Z,100384.44
2023-12-13T18:14:48.400Z,100465.19
2023-12-13T18:17:15.138Z,100375.63
2023-12-13T18:19:41.890Z,100360.00
2023-12-13T18:22:09.449Z,100432.78
2023-12-13T18:24:36.070Z,100433.91
2023-12-13T18:27:02.770Z,100295.59
2023-12-13T18:29:29.522Z,100407.72
2023-12-13T18:31:56.335Z,100503.69
2023-12-13T18:34:23.346Z,100454.94
2023-12-13T18:36:50.090Z,100499.56
2023-12-13T18:39:16.836Z,100494.25
2023-12-13T18:41:43.415Z,100382.03
2023-12-13T18:44:10.086Z,100475.84
2023-12-13T18:46:37.899Z,100455.09
2023-12-13T18:49:04.616Z,100455.72
2023-12-13T18:51:31.328Z,100516.13
2023-12-13T18:53:58.148Z,100444.25
2023-12-13T18:56:24.893Z,100473.44
2023-12-13T18:58:51.726Z,100477.78
2023-12-13T19:01:18.483Z,100491.63
2023-12-13T19:03:45.144Z,100486.78
2023-12-13T19:06:12.000Z,100528.16
2023-12-13T19:08:38.656Z,100469.94
2023-12-13T19:11:05.736Z,100544.50
2023-12-13T19:13:32.474Z,100503.72
2023-12-13T19:15:59.335Z,100549.78
2023-12-13T19:18:28.682Z,100517.81
2023-12-13T19:20:57.218Z,100512.69
2023-12-13T19:23:25.149Z,100531.47
2023-12-13T19:25:52.027Z,100523.16
2023-12-13T19:28:18.678Z,100552.00
2023-12-13T19:30:45.369Z,100553.22
2023-12-13T19:33:12.097Z,100541.22
2023-12-13T19:35:38.755Z,100569.44
2023-12-13T19:38:08.972Z,100481.78
2023-12-13T19:40:36.223Z,100589.25
2023-12-13T19:43:03.701Z,100582.16
2023-12-13T19:45:31.289Z,100645.91
2023-12-13T19:47:58.420Z,100569.69
2023-12-13T19:50:25.142Z,100572.19
2023-12-13T19:52:51.833Z,100574.19
2023-12-13T19:55:18.565Z,100549.00
2023-12-13T19:57:45.182Z,100620.09
2023-12-13T20:00:12.845Z,100601.84
2023-12-13T20:02:39.552Z,100629.00
2023-12-13T20:05:07.650Z,100632.53
2023-12-13T20:07:35.234Z,100603.84
2023-12-13T20:10:02.103Z,100647.84
2023-12-13T20:12:28.779Z,100542.16
2023-12-13T20:14:55.381Z,100608.59
2023-12-13T20:17:22.025Z,100632.81
2023-12-13T20:19:50.536Z,100653.00
2023-12-13T20:22:17.251Z,100587.63
2023-12-13T20:24:46.862Z,100657.19
2023-12-13T20:27:14.256Z,100654.41
2023-12-13T20:29:41.173Z,100643.13
2023-12-13T20:32:10.610Z,100678.69
2023-12-13T20:34:37.430Z,100654.25
2023-12-13T20:37:04.420Z,100674.94
2023-12-13T20:39:31.209Z,100670.56
2023-12-13T20:41:57.833Z,100641.47
2023-12-13T20:44:24.419Z,100631.63
2023-12-13T20:46:51.305Z,100688.56
2023-12-13T20:49:18.058Z,100724.97
2023-12-13T20:51:44.701Z,100677.25
2023-12-13T20:54:11.349Z,100702.81
2023-12-13T20:56:37.997Z,100692.66
2023-12-13T20:59:04.852Z,100670.31
2023-12-13T21:01:31.600Z,100660.97
2023-12-13T21:03:58.298Z,100658.59
2023-12-13T21:06:25.032Z,100684.50
2023-12-13T21:08:52.894Z,100737.88
2023-12-13T21:11:19.504Z,100666.13
2023-12-13T21:13:46.333Z,100735.25
2023-12-13T21:16:13.722Z,100670.38
2023-12-13T21:18:40.443Z,100677.41
2023-12-13T21:21:07.417Z,100692.47
2023-12-13T21:23:34.160Z,100698.34
2023-12-13T21:26:00.818Z,100688.16
2023-12-13T21:28:27.530Z,100708.84
2023-12-13T21:30:54.353Z,100727.69
2023-12-13T21:33:21.179Z,100753.94
2023-12-13T21:35:50.145Z,100768.53
2023-12-13T21:38:17.250Z,100743.00
2023-12-13T21:40:43.980Z,100762.44
2023-12-13T21:43:10.657Z,100782.38
2023-12-13T21:45:37.617Z,100721.50
2023-12-13T21:48:07.235Z,100801.84
2023-12-13T21:50:36.138Z,100770.34
2023-12-13T21:53:02.952Z,100769.41
2023-12-13T21:55:29.597Z,100813.97
2023-12-13T21:57:56.794Z,100801.31
2023-12-13T22:00:23.640Z,100824.06
2023-12-13T22:02:50.378Z,100786.44
2023-12-13T22:05:17.123Z,100790.72
2023-12-13T22:07:44.057Z,100779.47
2023-12-13T22:10:12.160Z,100678.22
2023-12-13T22:12:38.780Z,100765.75
2023-12-13T22:15:05.991Z,100686.03
2023-12-13T22:17:37.930Z,100816.56
2023-12-13T22:20:16.994Z,100799.81
2023-12-13T22:22:44.730Z,100812.91
2023-12-13T22:25:20.910Z,100806.47
2023-12-13T22:27:47.471Z,100762.41
2023-12-13T22:30:14.314Z,100859.53
2023-12-13T22:32:41.031Z,100824.69
2023-12-13T22:35:11.061Z,100871.00
2023-12-13T22:37:38.976Z,100869.16
2023-12-13T22:40:08.947Z,100874.44
2023-12-13T22:42:36.168Z,100867.66
2023-12-13T22:45:03.059Z,100779.34
2023-12-13T22:47:30.414Z,100702.38
2023-12-13T22:49:57.106Z,100816.63
2023-12-13T22:52:25.155Z,100879.03
2023-12-13T22:54:51.846Z,100836.16
2023-12-13T22:57:18.466Z,100862.09
2023-12-13T22:59:46.344Z,100859.63
2023-12-13T23:02:15.753Z,100905.19
2023-12-13T23:04:42.397Z,100907.56
2023-12-13T23:07:09.024Z,100877.22
2023-12-13T23:09:35.769Z,100905.00
2023-12-13T23:12:03.066Z,100855.97
2023-12-13T23:14:29.635Z,100883.78
2023-12-13T23:16:58.418Z,100860.19
2023-12-13T23:19:26.152Z,100891.06
2023-12-13T23:21:52.782Z,100887.28
2023-12-13T23:24:19.520Z,100870.84
2023-12-13T23:26:46.086Z,100865.84
2023-12-13T23:29:12.836Z,100929.66
2023-12-13T23:31:42.161Z,100895.78
2023-12-13T23:34:09.300Z,100899.63
2023-12-13T23:36:35.933Z,100918.59
2023-12-13T23:39:02.601Z,100944.09
2023-12-13T23:41:29.242Z,100915.94
2023-12-13T23:43:55.914Z,100846.09
2023-12-13T23:46:22.742Z,100899.63
2023-12-13T23:48:49.437Z,100893.50
2023-12-13T23:51:16.141Z,100957.31
2023-12-13T23:53:42.901Z,100946.50
2023-12-13T23:56:25.489Z,100959.16
2023-12-13T23:58:52.371Z,100935.03
